Time;durP1;ratioP1;P1;durP2;ratioP2;P2;SDS_P1;SDS_P2;PMS_P1;PMS_P2;Temp;Humidity;BMP_temperature;BMP_pressure;BME280_temperature;BME280_humidity;BME280_pressure;Samples;Min_cycle;Max_cycle;Signal;HPM_P1;HPM_P2
2022/05/27 00:02:25;;;;;;;7.55;2.28;;;;;;;14.19;77.79;101859.41;5114981;28;20391;-87
2022/05/27 00:04:56;;;;;;;7.53;2.33;;;;;;;14.23;77.55;101865.28;5114783;28;20020;-87
2022/05/27 00:07:28;;;;;;;10.23;2.13;;;;;;;14.17;77.81;101858.78;5114344;28;20036;-86
2022/05/27 00:09:56;;;;;;;7.95;2.40;;;;;;;14.22;77.97;101856.25;5081285;28;20058;-87
2022/05/27 00:12:30;;;;;;;5.47;2.00;;;;;;;14.20;77.87;101852.88;5097949;28;20035;-87
2022/05/27 00:14:58;;;;;;;7.78;2.00;;;;;;;14.24;77.75;101859.59;5114874;28;20023;-87
2022/05/27 00:17:29;;;;;;;4.00;1.95;;;;;;;14.24;77.57;101877.88;5114620;28;20031;-86
2022/05/27 00:19:54;;;;;;;8.47;2.10;;;;;;;14.20;77.96;101856.47;5115855;28;20104;-87
2022/05/27 00:22:30;;;;;;;6.50;1.70;;;;;;;14.14;78.37;101851.03;5114326;28;20027;-87
2022/05/27 00:24:58;;;;;;;8.07;2.13;;;;;;;14.09;79.13;101846.22;5114600;28;20028;-86
2022/05/27 00:27:33;;;;;;;6.38;2.33;;;;;;;14.13;79.41;101855.66;5114437;28;20032;-87
2022/05/27 00:29:59;;;;;;;6.85;2.33;;;;;;;14.04;79.10;101843.31;5097811;28;20035;-86
2022/05/27 00:32:28;;;;;;;12.90;2.30;;;;;;;14.06;79.49;101840.34;5114036;28;20027;-87
2022/05/27 00:34:55;;;;;;;8.60;2.40;;;;;;;14.07;78.88;101840.13;5114153;28;20035;-87
2022/05/27 00:37:26;;;;;;;6.80;2.15;;;;;;;14.09;78.95;101842.66;5113798;28;20051;-87
2022/05/27 00:39:56;;;;;;;9.43;2.20;;;;;;;14.12;78.84;101834.88;5113937;28;20390;-87
2022/05/27 00:42:25;;;;;;;9.07;2.60;;;;;;;14.12;79.15;101842.22;5114335;28;20031;-87
2022/05/27 00:44:53;;;;;;;9.97;2.63;;;;;;;14.13;79.17;101847.47;5096921;28;20032;-87
2022/05/27 00:47:25;;;;;;;8.27;2.10;;;;;;;14.14;78.77;101843.69;5113990;28;20057;-87
2022/05/27 00:50:12;;;;;;;13.30;2.90;;;;;;;14.19;78.93;101848.50;5113916;28;20028;-87
2022/05/27 00:52:42;;;;;;;6.88;2.22;;;;;;;14.10;79.55;101836.97;5114054;28;20092;-87
2022/05/27 00:55:13;;;;;;;7.15;2.75;;;;;;;14.17;79.63;101851.44;5115039;28;20036;-87
2022/05/27 00:57:46;;;;;;;10.13;2.60;;;;;;;14.11;80.03;101835.06;5113847;28;20023;-86
2022/05/27 01:00:25;;;;;;;8.68;2.22;;;;;;;14.06;79.86;101824.81;5114940;28;20035;-87
2022/05/27 01:02:53;;;;;;;6.25;2.50;;;;;;;14.04;80.89;101848.75;5096858;28;20055;-86
2022/05/27 01:05:25;;;;;;;8.60;3.00;;;;;;;14.03;81.04;101822.50;5115035;28;20079;-87
2022/05/27 01:07:55;;;;;;;9.65;3.22;;;;;;;13.80;84.46;101829.31;5114941;28;20037;-87
2022/05/27 01:10:21;;;;;;;8.83;3.00;;;;;;;13.55;86.03;101820.91;5113108;28;20038;-87
2022/05/27 01:13:41;;;;;;;10.40;3.28;;;;;;;13.44;88.19;101846.13;5113616;28;20368;-87
2022/05/27 01:16:47;;;;;;;;;;;;;;;;;;;;;
2022/05/27 01:22:23;;;;;;;11.45;3.50;;;;;;;13.20;89.37;101842.06;5115185;28;20081;-84
2022/05/27 01:25:13;;;;;;;15.07;3.90;;;;;;;13.13;91.56;101839.38;5115082;28;20032;-84
2022/05/27 01:27:55;;;;;;;14.73;4.47;;;;;;;13.03;93.94;101839.75;5114961;28;20038;-84
2022/05/27 01:30:24;;;;;;;12.88;4.03;;;;;;;12.94;94.23;101844.56;5114767;28;20066;-84
2022/05/27 01:33:04;;;;;;;12.02;4.20;;;;;;;12.81;95.41;101826.34;5113407;28;20046;-84
2022/05/27 01:36:12;;;;;;;16.90;5.47;;;;;;;12.76;95.10;101842.44;5113097;28;20039;-84
2022/05/27 01:39:15;;;;;;;14.60;3.50;;;;;;;12.69;95.00;101838.84;5103382;28;20479;-84
2022/05/27 01:42:03;;;;;;;11.45;4.55;;;;;;;12.63;97.30;101831.50;5112966;28;20560;-83
2022/05/27 01:44:57;;;;;;;12.52;4.53;;;;;;;12.65;98.21;101834.84;5113786;28;20031;-84
2022/05/27 01:47:40;;;;;;;19.30;5.55;;;;;;;12.61;98.51;101826.28;5113440;28;20023;-84
2022/05/27 01:50:09;;;;;;;17.02;5.28;;;;;;;12.59;98.99;101827.50;5114417;28;20035;-83
2022/05/27 01:52:45;;;;;;;19.90;5.80;;;;;;;12.52;100.00;101829.38;5113622;28;20428;-83
2022/05/27 01:55:24;;;;;;;18.75;5.82;;;;;;;12.50;100.00;101836.91;5113677;28;20498;-84
2022/05/27 01:57:58;;;;;;;13.07;5.47;;;;;;;12.49;100.00;101833.38;5113200;28;20369;-83
2022/05/27 02:00:27;;;;;;;15.00;5.70;;;;;;;12.46;100.00;101842.78;5114620;28;20035;-83
2022/05/27 02:03:10;;;;;;;20.58;6.18;;;;;;;12.44;100.00;101833.94;5112939;28;20042;-84
2022/05/27 02:05:52;;;;;;;17.30;6.63;;;;;;;12.38;100.00;101842.94;5113290;28;20542;-84
2022/05/27 02:08:21;;;;;;;21.52;6.63;;;;;;;12.38;100.00;101840.22;5114507;28;20151;-83
2022/05/27 02:11:23;;;;;;;18.20;6.38;;;;;;;12.34;100.00;101846.28;5113040;28;20031;-83
2022/05/27 02:13:59;;;;;;;19.30;7.40;;;;;;;12.33;100.00;101829.09;5014716;28;20029;-83
2022/05/27 02:16:36;;;;;;;18.02;7.15;;;;;;;12.30;100.00;101840.41;5099583;28;20096;-83
2022/05/27 02:19:22;;;;;;;26.40;8.07;;;;;;;12.29;100.00;101836.81;5112795;28;20479;-83
2022/05/27 02:21:56;;;;;;;18.77;7.70;;;;;;;12.27;100.00;101838.09;5115873;28;20027;-82
2022/05/27 02:24:39;;;;;;;21.88;8.10;;;;;;;12.26;100.00;101830.97;5116748;28;20026;-82
2022/05/27 02:27:09;;;;;;;30.70;8.43;;;;;;;12.24;100.00;101835.78;5118006;28;20153;-82
2022/05/27 02:29:36;;;;;;;22.63;8.23;;;;;;;12.22;100.00;101838.69;5117213;28;20118;-82
2022/05/27 02:32:28;;;;;;;25.97;8.30;;;;;;;12.20;100.00;101834.50;5117872;28;20032;-82
2022/05/27 02:35:10;;;;;;;23.55;9.00;;;;;;;12.19;100.00;101830.91;5105602;28;20063;-81
2022/05/27 02:37:44;;;;;;;25.17;9.48;;;;;;;12.19;100.00;101830.09;5118001;28;20050;-82
2022/05/27 02:40:17;;;;;;;23.35;8.85;;;;;;;12.20;100.00;101829.06;5117880;28;20043;-82
2022/05/27 02:43:07;;;;;;;27.38;10.10;;;;;;;12.19;100.00;101816.47;5116982;28;20032;-82
2022/05/27 02:45:59;;;;;;;23.83;9.80;;;;;;;12.13;100.00;101814.59;5118225;28;20042;-82
2022/05/27 02:48:39;;;;;;;21.05;8.30;;;;;;;12.14;100.00;101817.09;5116583;28;20024;-82
2022/05/27 02:51:19;;;;;;;25.90;10.38;;;;;;;12.15;100.00;101823.38;5116778;28;20026;-82
2022/05/27 02:54:09;;;;;;;28.90;10.43;;;;;;;12.13;100.00;101820.84;5116422;28;20517;-82
2022/05/27 02:56:38;;;;;;;23.85;10.63;;;;;;;12.13;100.00;101828.19;5117283;28;20069;-82
2022/05/27 02:59:07;;;;;;;28.53;11.07;;;;;;;12.14;100.00;101822.53;5116264;28;20040;-82
2022/05/27 03:01:33;;;;;;;23.52;10.38;;;;;;;12.11;100.00;101822.94;5117226;28;20038;-82
2022/05/27 03:03:58;;;;;;;31.23;11.93;;;;;;;12.12;100.00;101813.75;5099160;28;20032;-82
2022/05/27 03:06:43;;;;;;;29.43;11.37;;;;;;;12.11;100.00;101812.88;5099206;28;20273;-82
2022/05/27 03:09:42;;;;;;;28.90;11.90;;;;;;;12.11;100.00;101812.06;5116346;28;20459;-82
2022/05/27 03:12:35;;;;;;;31.57;12.37;;;;;;;12.11;100.00;101812.06;5117029;28;20070;-82
2022/05/27 03:15:12;;;;;;;29.65;13.98;;;;;;;12.10;100.00;101813.09;5116605;28;20039;-81
2022/05/27 03:17:44;;;;;;;28.35;12.57;;;;;;;12.10;100.00;101805.75;5115816;28;20486;-82
2022/05/27 03:20:33;;;;;;;29.27;12.77;;;;;;;12.10;100.00;101813.91;5116184;28;20028;-81
2022/05/27 03:23:04;;;;;;;31.40;13.30;;;;;;;12.12;100.00;101816.47;5078677;28;20124;-82
2022/05/27 03:25:35;;;;;;;33.10;14.40;;;;;;;12.15;100.00;101807.03;5116890;28;20028;-81
2022/05/27 03:28:10;;;;;;;26.70;13.95;;;;;;;12.14;100.00;101811.66;5115758;28;20041;-83
2022/05/27 03:30:41;;;;;;;32.72;14.70;;;;;;;12.17;100.00;101816.69;5117054;28;20504;-82
2022/05/27 03:33:20;;;;;;;24.17;14.00;;;;;;;12.15;100.00;101807.03;5114473;28;20031;-82
2022/05/27 03:36:04;;;;;;;39.58;15.23;;;;;;;12.18;100.00;101806.63;5116448;28;20439;-83
2022/05/27 03:38:53;;;;;;;35.97;15.17;;;;;;;12.24;100.00;101820.28;5115490;28;20048;-82
2022/05/27 03:41:34;;;;;;;34.55;15.55;;;;;;;12.27;100.00;101816.31;5116765;28;20062;-82
2022/05/27 03:44:01;;;;;;;28.33;15.15;;;;;;;12.26;100.00;101814.63;5115765;28;20028;-82
2022/05/27 03:46:35;;;;;;;34.80;17.00;;;;;;;12.27;100.00;101821.75;5115329;28;20028;-82
2022/05/27 03:49:02;;;;;;;33.70;16.77;;;;;;;12.32;100.00;101821.16;5116427;28;20028;-82
2022/05/27 03:51:31;;;;;;;46.30;18.50;;;;;;;12.32;100.00;101835.59;5115307;28;20051;-81
2022/05/27 03:54:05;;;;;;;37.08;18.15;;;;;;;12.34;100.00;101833.53;5115208;28;20024;-80
2022/05/27 03:56:35;;;;;;;31.17;14.57;;;;;;;12.35;100.00;101834.34;5099623;28;20084;-81
2022/05/27 03:59:02;;;;;;;21.55;11.30;;;;;;;12.29;100.00;101825.09;5116148;28;20020;-80
2022/05/27 04:01:29;;;;;;;16.02;7.47;;;;;;;12.18;100.00;101826.53;5098508;28;20035;-81
2022/05/27 04:04:00;;;;;;;15.73;7.30;;;;;;;12.11;100.00;101822.94;5115053;28;20024;-81
2022/05/27 04:06:27;;;;;;;16.38;7.40;;;;;;;12.05;100.00;101821.88;5114981;28;20370;-81
2022/05/27 04:08:53;;;;;;;15.40;6.93;;;;;;;12.03;100.00;101823.97;5116183;28;20076;-81
2022/05/27 04:11:19;;;;;;;11.85;7.10;;;;;;;12.01;100.00;101817.03;5098485;28;20055;-81
2022/05/27 04:13:45;;;;;;;13.07;6.68;;;;;;;12.04;100.00;101822.06;5098051;28;20114;-81
2022/05/27 04:16:10;;;;;;;13.83;8.03;;;;;;;12.08;100.00;101829.63;5115837;28;20500;-81
2022/05/27 04:18:36;;;;;;;17.10;9.13;;;;;;;12.11;100.00;101825.66;5115683;28;20039;-81
2022/05/27 04:21:01;;;;;;;18.23;9.17;;;;;;;12.15;100.00;101826.94;5097983;28;20479;-81
2022/05/27 04:23:26;;;;;;;25.80;11.43;;;;;;;12.22;100.00;101833.25;5114686;28;20031;-81
2022/05/27 04:25:52;;;;;;;30.07;12.53;;;;;;;12.29;100.00;101838.72;5097302;28;20036;-81
2022/05/27 04:28:17;;;;;;;25.67;11.40;;;;;;;12.34;100.00;101838.09;5114538;28;20063;-82
2022/05/27 04:30:45;;;;;;;23.50;11.37;;;;;;;12.38;100.00;101840.22;5097577;28;20028;-81
2022/05/27 04:33:11;;;;;;;25.80;12.32;;;;;;;12.44;100.00;101839.38;5114511;28;20101;-81
2022/05/27 04:35:36;;;;;;;27.27;12.95;;;;;;;12.50;100.00;101836.91;5114346;28;20028;-81
2022/05/27 04:38:02;;;;;;;36.03;13.97;;;;;;;12.51;100.00;101835.88;5097102;28;20047;-81
2022/05/27 04:40:28;;;;;;;30.17;14.38;;;;;;;12.56;100.00;101830.66;5114234;28;20074;-81
2022/05/27 04:42:53;;;;;;;30.77;13.47;;;;;;;12.58;100.00;101832.13;5114272;28;20449;-82
2022/05/27 04:45:21;;;;;;;33.30;15.13;;;;;;;12.62;100.00;101843.44;5096927;28;20019;-81
2022/05/27 04:47:48;;;;;;;36.53;14.47;;;;;;;12.63;100.00;101834.22;5097592;28;20062;-81
2022/05/27 04:50:14;;;;;;;31.50;13.48;;;;;;;12.66;100.00;101824.81;5115354;28;20032;-82
2022/05/27 04:52:40;;;;;;;32.83;14.45;;;;;;;12.68;100.00;101834.47;5080315;28;20043;-82
2022/05/27 04:55:13;;;;;;;38.72;14.82;;;;;;;12.71;100.00;101834.06;5115826;28;20088;-81
2022/05/27 04:57:46;;;;;;;36.97;14.68;;;;;;;12.76;100.00;101836.16;5113691;28;20106;-81
2022/05/27 05:00:17;;;;;;;34.50;14.63;;;;;;;12.84;100.00;101843.28;5115286;28;20038;-81
2022/05/27 05:02:43;;;;;;;31.98;14.55;;;;;;;12.87;100.00;101830.09;5114207;28;20475;-81
2022/05/27 05:05:10;;;;;;;34.22;14.20;;;;;;;12.91;100.00;101841.44;5115105;28;20019;-81
2022/05/27 05:07:40;;;;;;;40.17;14.68;;;;;;;12.94;100.00;101847.28;5113983;28;20030;-81
2022/05/27 05:10:07;;;;;;;45.70;14.57;;;;;;;12.97;100.00;101852.31;5096953;28;20042;-81
2022/05/27 05:12:33;;;;;;;32.57;14.43;;;;;;;13.05;100.00;101854.03;5114021;28;20044;-81
2022/05/27 05:14:59;;;;;;;41.30;13.45;;;;;;;13.13;100.00;101844.81;5096799;28;20093;-81
2022/05/27 05:17:24;;;;;;;38.90;15.32;;;;;;;13.24;100.00;101854.25;5113174;28;20437;-81
2022/05/27 05:19:53;;;;;;;40.90;14.23;;;;;;;13.26;100.00;101858.44;5114508;28;20039;-81
2022/05/27 05:22:19;;;;;;;44.03;14.13;;;;;;;13.26;100.00;101857.63;5097177;28;20055;-82
2022/05/27 05:24:44;;;;;;;40.92;14.13;;;;;;;13.27;100.00;101868.31;5113662;28;20479;-82
2022/05/27 05:27:10;;;;;;;33.47;13.50;;;;;;;13.30;100.00;101856.13;5096832;28;20043;-82
2022/05/27 05:29:35;;;;;;;35.50;12.80;;;;;;;13.31;100.00;101858.63;5113351;28;20457;-82
2022/05/27 05:32:01;;;;;;;31.13;11.90;;;;;;;13.27;100.00;101864.72;5096428;28;20039;-82
2022/05/27 05:34:26;;;;;;;35.50;12.00;;;;;;;13.28;100.00;101878.13;5096510;28;20547;-82
2022/05/27 05:36:54;;;;;;;33.22;11.93;;;;;;;13.35;100.00;101880.91;5096073;28;20080;-82
2022/05/27 05:39:20;;;;;;;31.43;12.40;;;;;;;13.45;100.00;101878.63;5096443;28;20032;-82
2022/05/27 05:41:56;;;;;;;25.48;11.27;;;;;;;13.36;100.00;101879.88;5096211;28;20081;-82
2022/05/27 05:44:21;;;;;;;34.88;9.80;;;;;;;13.39;100.00;101892.22;5113417;28;20459;-81
2022/05/27 05:46:48;;;;;;;30.53;9.10;;;;;;;13.35;100.00;101891.00;5095966;28;20080;-81
2022/05/27 05:49:13;;;;;;;23.25;8.13;;;;;;;13.35;100.00;101889.09;5096262;28;20081;-81
2022/05/27 05:51:39;;;;;;;25.03;8.30;;;;;;;13.36;100.00;101892.66;5079140;28;20031;-81
2022/05/27 05:54:04;;;;;;;17.80;8.00;;;;;;;13.42;100.00;101894.53;5113242;28;20076;-82
2022/05/27 05:56:33;;;;;;;23.10;8.18;;;;;;;13.44;100.00;101895.19;5094833;28;20445;-80
2022/05/27 05:58:59;;;;;;;23.37;7.60;;;;;;;13.40;100.00;101894.75;5112481;28;20070;-81
2022/05/27 06:01:24;;;;;;;15.88;6.90;;;;;;;13.36;100.00;101888.06;5114368;28;20055;-82
2022/05/27 06:03:50;;;;;;;26.73;6.90;;;;;;;13.41;100.00;101888.25;5113077;28;20463;-81
2022/05/27 06:06:15;;;;;;;21.20;8.00;;;;;;;13.51;100.00;101894.13;5096116;28;20280;-82
2022/05/27 06:08:41;;;;;;;25.93;7.53;;;;;;;13.59;100.00;101889.53;5095731;28;20077;-82
2022/05/27 06:11:09;;;;;;;21.43;7.30;;;;;;;13.65;100.00;101888.66;5079081;28;20024;-82
2022/05/27 06:13:40;;;;;;;21.23;7.07;;;;;;;13.64;100.00;101881.53;5113291;28;20035;-81
2022/05/27 06:16:06;;;;;;;19.13;6.78;;;;;;;13.62;100.00;101887.19;5113344;28;20028;-81
2022/05/27 06:18:31;;;;;;;21.17;6.80;;;;;;;13.52;100.00;101884.06;5112453;28;20345;-81
2022/05/27 06:20:57;;;;;;;19.60;6.63;;;;;;;13.53;100.00;101890.38;5078855;28;20485;-82
2022/05/27 06:23:23;;;;;;;16.55;6.35;;;;;;;13.48;100.00;101888.28;5112897;28;20023;-82
2022/05/27 06:26:05;;;;;;;20.87;5.90;;;;;;;13.39;100.00;101901.25;5113845;28;20031;-81
2022/05/27 06:36:44;;;;;;;17.00;4.70;;;;;;;13.16;100.00;101909.78;5113436;28;20481;-82
2022/05/27 06:39:10;;;;;;;14.13;4.72;;;;;;;13.12;100.00;101913.97;5112674;28;20216;-82
2022/05/27 06:41:36;;;;;;;13.40;4.55;;;;;;;13.19;100.00;101917.53;5112773;28;20111;-82
2022/05/27 06:44:03;;;;;;;14.02;3.85;;;;;;;13.15;100.00;101914.41;5112426;28;20062;-83
2022/05/27 06:46:29;;;;;;;12.25;3.80;;;;;;;13.15;100.00;101913.56;5112360;28;20070;-82
2022/05/27 06:48:55;;;;;;;11.83;3.70;;;;;;;13.12;100.00;101905.78;5112445;28;20027;-81
2022/05/27 06:51:20;;;;;;;12.50;3.80;;;;;;;13.12;100.00;101911.25;5095997;28;20528;-82
2022/05/27 06:53:47;;;;;;;13.00;2.90;;;;;;;13.00;100.00;101913.72;5112499;28;20395;-82
2022/05/27 06:56:13;;;;;;;12.25;2.95;;;;;;;12.96;100.00;101912.44;5113085;28;20071;-81
2022/05/27 06:58:40;;;;;;;12.23;3.05;;;;;;;12.92;99.62;101912.03;5113632;28;20049;-82
2022/05/27 07:01:09;;;;;;;13.40;3.20;;;;;;;12.98;100.00;101910.38;5111959;28;20143;-82
2022/05/27 07:03:37;;;;;;;9.75;2.83;;;;;;;13.11;100.00;101913.13;5113297;28;20020;-82
2022/05/27 07:06:07;;;;;;;11.07;2.90;;;;;;;13.25;100.00;101918.59;5079036;28;20034;-82
2022/05/27 07:08:34;;;;;;;12.90;3.53;;;;;;;13.38;100.00;101924.13;5099822;28;20042;-82
2022/05/27 07:11:00;;;;;;;10.15;3.22;;;;;;;13.53;97.72;101923.09;5115840;28;20474;-82
2022/05/27 07:13:26;;;;;;;11.50;3.27;;;;;;;13.58;96.42;101924.13;5116234;28;20036;-82
2022/05/27 07:15:51;;;;;;;10.60;3.25;;;;;;;13.58;89.90;101932.31;5115728;28;20425;-82
2022/05/27 07:18:17;;;;;;;13.13;3.70;;;;;;;13.55;91.36;101908.16;5098464;28;20051;-82
2022/05/27 07:20:43;;;;;;;9.32;3.35;;;;;;;13.59;91.32;101919.50;5099532;28;20118;-82
2022/05/27 07:23:08;;;;;;;11.93;3.40;;;;;;;13.53;92.79;101917.63;5116352;28;20375;-82
2022/05/27 07:25:34;;;;;;;9.67;3.00;;;;;;;13.61;90.64;101934.63;5116079;28;20063;-82
2022/05/27 07:28:01;;;;;;;11.48;2.92;;;;;;;13.57;87.55;101919.72;5115617;28;20023;-82
2022/05/27 07:30:26;;;;;;;13.07;3.15;;;;;;;13.63;87.57;101921.59;5099074;28;20110;-83
2022/05/27 07:32:52;;;;;;;10.87;3.20;;;;;;;13.74;85.02;101927.47;5098501;28;20127;-82
2022/05/27 07:35:17;;;;;;;8.53;2.83;;;;;;;13.80;86.79;101913.84;5117484;28;20032;-82
2022/05/27 07:37:43;;;;;;;8.27;3.23;;;;;;;13.97;85.06;101927.88;5081158;28;20055;-82
2022/05/27 07:40:09;;;;;;;11.43;3.40;;;;;;;14.07;83.61;101923.88;5098636;28;20035;-83
2022/05/27 07:42:35;;;;;;;11.73;3.28;;;;;;;14.07;87.36;101922.00;5114882;28;20126;-82
2022/05/27 07:45:00;;;;;;;9.82;3.00;;;;;;;14.12;82.61;101924.91;5115939;28;20062;-83
2022/05/27 07:47:26;;;;;;;8.80;2.50;;;;;;;14.08;81.32;101937.31;5081643;28;20039;-83
2022/05/27 07:49:51;;;;;;;10.47;3.10;;;;;;;14.10;80.33;101943.41;5098188;28;20028;-84
2022/05/27 07:52:16;;;;;;;6.70;2.53;;;;;;;14.18;80.45;101934.16;5116372;28;20058;-83
2022/05/27 07:54:42;;;;;;;9.07;2.87;;;;;;;14.19;82.32;101927.66;5098348;28;20039;-83
2022/05/27 07:57:23;;;;;;;7.25;2.53;;;;;;;14.27;81.93;101934.75;5082021;28;20027;-83
2022/05/27 07:59:52;;;;;;;9.40;2.93;;;;;;;14.45;83.49;101926.72;5116769;28;20023;-83
2022/05/27 08:02:18;;;;;;;9.82;4.93;;;;;;;14.55;81.62;101929.84;5115111;28;20036;-83
2022/05/27 08:04:43;;;;;;;10.30;3.88;;;;;;;14.58;82.45;101923.09;5082051;28;20041;-83
2022/05/27 08:07:08;;;;;;;12.93;3.80;;;;;;;14.66;81.20;101922.91;5097601;28;20028;-85
2022/05/27 08:09:34;;;;;;;10.40;3.33;;;;;;;14.69;79.18;101938.88;5114487;28;20383;-85
2022/05/27 08:11:59;;;;;;;10.97;3.70;;;;;;;14.77;80.71;101931.47;5098468;28;20031;-84
2022/05/27 08:14:25;;;;;;;9.40;3.00;;;;;;;15.03;77.81;101933.25;5114601;28;20102;-84
2022/05/27 08:16:50;;;;;;;7.90;3.03;;;;;;;15.11;77.62;101934.88;5097578;28;20032;-84
2022/05/27 08:19:16;;;;;;;9.30;3.67;;;;;;;15.19;78.23;101942.81;5097134;28;20028;-83
2022/05/27 08:21:41;;;;;;;10.13;3.50;;;;;;;15.04;78.89;101949.44;5114604;28;20030;-84
2022/05/27 08:24:10;;;;;;;7.80;2.72;;;;;;;14.95;78.33;101960.81;5098202;28;20122;-84
2022/05/27 08:26:38;;;;;;;9.70;2.53;;;;;;;14.86;78.15;101961.06;5114218;28;20042;-84
2022/05/27 08:29:03;;;;;;;8.38;2.40;;;;;;;14.86;78.95;101961.06;5114377;28;20059;-83
2022/05/27 08:31:29;;;;;;;11.20;3.10;;;;;;;14.94;80.29;101950.94;5097681;28;20054;-84
2022/05/27 08:39:23;;;;;;;10.40;3.20;;;;;;;14.93;77.95;101952.00;5114730;28;20066;-84
2022/05/27 08:42:04;;;;;;;10.88;3.70;;;;;;;15.08;78.66;101956.09;5097268;28;20027;-83
2022/05/27 08:44:50;;;;;;;10.57;3.50;;;;;;;15.21;77.41;101973.50;5114229;28;20035;-83
2022/05/27 08:47:30;;;;;;;9.98;3.50;;;;;;;15.42;75.17;101945.81;5115117;28;20498;-83
2022/05/27 08:50:24;;;;;;;9.00;3.60;;;;;;;15.69;76.18;101955.72;5114952;28;20479;-83
2022/05/27 08:52:55;;;;;;;12.27;3.20;;;;;;;15.82;73.56;101952.91;5104040;28;20046;-83
2022/05/27 09:01:20;;;;;;;7.53;2.80;;;;;;;15.96;68.78;101957.22;5115489;28;20097;-84
2022/05/27 09:04:08;;;;;;;8.70;2.65;;;;;;;15.85;68.51;101966.13;5113688;28;20459;-84
2022/05/27 09:07:06;;;;;;;8.98;2.38;;;;;;;15.58;66.11;101971.78;5114993;28;20036;-84
2022/05/27 09:09:37;;;;;;;7.32;2.88;;;;;;;15.46;64.41;101965.38;5098243;28;20077;-84
2022/05/27 09:12:31;;;;;;;6.53;2.13;;;;;;;15.41;67.72;101990.66;5114413;28;20103;-84
2022/05/27 09:15:20;;;;;;;9.77;2.47;;;;;;;15.63;67.19;101964.81;5114476;28;20025;-84
2022/05/27 09:18:04;;;;;;;9.73;2.83;;;;;;;15.88;62.88;101965.69;5115074;28;20031;-83
2022/05/27 09:21:02;;;;;;;9.13;2.60;;;;;;;16.17;64.74;101971.53;5113954;28;20039;-84
2022/05/27 09:23:34;;;;;;;6.70;2.30;;;;;;;16.23;63.32;101970.63;5113394;28;20111;-84
2022/05/27 09:26:15;;;;;;;17.30;3.10;;;;;;;16.16;64.93;101980.81;5115236;28;20444;-84
2022/05/27 09:28:52;;;;;;;9.20;2.40;;;;;;;16.20;63.25;101982.03;5115207;28;20028;-84
2022/05/27 09:31:41;;;;;;;10.35;2.70;;;;;;;16.33;62.21;101975.59;5114024;28;20118;-84
2022/05/27 09:34:12;;;;;;;6.78;2.33;;;;;;;16.38;61.48;101985.88;5113288;28;20039;-84
2022/05/27 09:36:47;;;;;;;10.48;2.50;;;;;;;16.36;61.93;101990.72;5113141;28;20490;-84
2022/05/27 09:39:19;;;;;;;4.87;1.93;;;;;;;16.54;58.67;101989.94;5112831;28;20047;-84
2022/05/27 09:41:53;;;;;;;14.55;3.13;;;;;;;16.81;59.71;101999.50;5113520;28;20028;-84
2022/05/27 09:44:21;;;;;;;6.93;2.38;;;;;;;16.97;57.89;101998.06;5114331;28;20038;-84
2022/05/27 09:46:47;;;;;;;7.03;2.78;;;;;;;17.06;57.82;102001.34;5114077;28;20433;-84
2022/05/27 09:49:12;;;;;;;9.63;2.60;;;;;;;17.10;58.48;102002.56;5113523;28;20032;-83
2022/05/27 09:51:38;;;;;;;5.60;2.30;;;;;;;17.18;57.11;102017.84;5096566;28;20027;-84
2022/05/27 09:54:04;;;;;;;10.63;2.67;;;;;;;17.24;55.22;102010.59;5113003;28;20027;-84
2022/05/27 09:56:43;;;;;;;8.50;2.35;;;;;;;17.14;58.00;102013.88;5112522;28;20123;-84
2022/05/27 09:59:25;;;;;;;11.87;2.60;;;;;;;17.21;57.07;102006.41;5113625;28;20063;-84
2022/05/27 10:01:52;;;;;;;9.10;2.75;;;;;;;17.12;53.93;102016.84;5113689;28;20358;-84
2022/05/27 10:04:19;;;;;;;15.80;3.38;;;;;;;17.03;52.79;102026.47;5112743;28;20027;-84
2022/05/27 10:06:46;;;;;;;12.32;2.65;;;;;;;17.11;51.01;102023.44;5113023;28;20065;-84
2022/05/27 10:09:33;;;;;;;10.25;2.45;;;;;;;17.17;53.39;102007.97;5112747;28;20488;-84
2022/05/27 10:11:59;;;;;;;12.40;2.53;;;;;;;17.17;50.02;102018.94;5113143;28;20455;-85
2022/05/27 10:14:32;;;;;;;6.72;1.60;;;;;;;17.18;49.59;102026.06;5114037;28;20051;-83
2022/05/27 10:17:09;;;;;;;10.75;2.20;;;;;;;17.27;52.15;102013.72;5112639;28;20110;-83
2022/05/27 10:19:46;;;;;;;7.22;2.25;;;;;;;17.42;52.68;102015.19;5114405;28;20528;-83
2022/05/27 10:22:26;;;;;;;6.30;1.90;;;;;;;17.51;52.94;101998.19;5112995;28;20105;-82
2022/05/27 10:25:12;;;;;;;10.40;1.77;;;;;;;17.61;51.30;102021.47;5112696;28;20028;-86
2022/05/27 10:27:50;;;;;;;7.68;2.03;;;;;;;17.68;49.09;102003.00;5112813;28;20061;-83
2022/05/27 10:30:28;;;;;;;10.70;2.97;;;;;;;17.87;50.64;102006.50;5113399;28;20451;-83
2022/05/27 10:32:55;;;;;;;11.93;2.63;;;;;;;17.89;46.51;101996.09;5112861;28;20463;-83
2022/05/27 10:35:20;;;;;;;10.18;2.33;;;;;;;17.86;47.93;102005.66;5112628;28;20032;-83
2022/05/27 10:37:51;;;;;;;8.03;2.00;;;;;;;17.69;47.96;102018.41;5112572;28;20047;-83
2022/05/27 10:40:54;;;;;;;5.93;2.13;;;;;;;17.76;49.30;102004.56;5112751;28;20043;-85
2022/05/27 10:43:47;;;;;;;13.07;2.33;;;;;;;17.82;48.00;102020.06;5116605;28;20035;-83
2022/05/27 10:46:15;;;;;;;12.07;2.50;;;;;;;18.02;47.13;102014.31;5116838;28;20028;-83
2022/05/27 10:49:07;;;;;;;8.93;2.13;;;;;;;17.89;48.60;102009.81;5117188;28;20032;-86
2022/05/27 10:51:53;;;;;;;11.10;2.53;;;;;;;17.88;50.74;102027.41;5116097;28;20042;-85
2022/05/27 10:54:48;;;;;;;9.32;2.38;;;;;;;17.53;51.28;102028.13;5116442;28;20486;-84
2022/05/27 11:03:45;;;;;;;8.95;2.40;;;;;;;18.32;45.58;102013.34;5117522;28;20156;-85
2022/05/27 11:06:31;;;;;;;10.50;2.00;;;;;;;18.24;43.58;102050.25;5115816;28;20027;-84
2022/05/27 11:09:06;;;;;;;8.73;2.30;;;;;;;18.37;43.51;102017.06;5117625;28;20035;-84
2022/05/27 11:11:37;;;;;;;9.00;1.80;;;;;;;18.53;44.53;102032.00;5116286;28;20090;-84
2022/05/27 11:17:18;;;;;;;10.25;2.08;;;;;;;19.52;42.49;102029.38;5117372;28;20038;-84
2022/05/27 11:20:24;;;;;;;10.40;2.33;;;;;;;21.75;40.66;102010.97;5116041;28;20032;-84
2022/05/27 11:22:49;;;;;;;7.47;2.10;;;;;;;22.38;36.15;102005.66;5115886;28;20027;-84
2022/05/27 11:25:15;;;;;;;13.10;2.77;;;;;;;20.94;39.72;102009.00;5115856;28;20027;-84
2022/05/27 11:27:59;;;;;;;10.47;2.40;;;;;;;21.07;39.50;102016.03;5115945;28;20028;-84
2022/05/27 11:30:44;;;;;;;9.38;2.40;;;;;;;23.49;39.60;102018.56;5115304;28;20031;-84
2022/05/27 11:33:13;;;;;;;10.27;2.30;;;;;;;23.77;33.78;102010.81;5115435;28;20024;-85
2022/05/27 11:36:13;;;;;;;12.90;2.35;;;;;;;22.30;36.61;102046.78;5115394;28;20118;-85
2022/05/27 11:38:57;;;;;;;8.77;2.35;;;;;;;20.43;40.31;102018.22;5115052;28;20060;-85
2022/05/27 11:41:50;;;;;;;8.65;2.75;;;;;;;20.15;42.12;102035.69;5116569;28;20070;-84
2022/05/27 11:44:24;;;;;;;9.48;2.47;;;;;;;19.92;41.77;102031.19;5116232;28;20134;-84
2022/05/27 11:47:05;;;;;;;6.83;2.60;;;;;;;22.73;38.64;102018.00;5116709;28;20045;-84
2022/05/27 11:49:41;;;;;;;9.68;2.50;;;;;;;25.09;33.70;102013.63;5116347;28;20027;-84
2022/05/27 11:52:15;;;;;;;11.90;3.05;;;;;;;27.09;31.38;102029.63;5116511;28;20076;-84
2022/05/27 11:54:55;;;;;;;10.60;2.45;;;;;;;27.46;28.71;102019.63;5113650;28;20046;-85
2022/05/27 11:58:01;;;;;;;10.45;2.58;;;;;;;28.79;28.04;102008.09;5115028;28;20127;-85
2022/05/27 12:00:29;;;;;;;8.27;2.60;;;;;;;28.80;25.00;102039.63;5114896;28;20035;-85
2022/05/27 12:03:25;;;;;;;10.15;2.45;;;;;;;29.38;26.26;102019.38;5114361;28;20076;-84
2022/05/27 12:05:57;;;;;;;8.48;2.47;;;;;;;27.56;26.72;102013.09;5115343;28;20337;-84
2022/05/27 12:08:25;;;;;;;9.23;2.63;;;;;;;25.89;28.09;102014.47;5115396;28;20035;-85
2022/05/27 12:11:24;;;;;;;9.02;2.78;;;;;;;25.41;31.49;102017.91;5114337;28;20036;-84
2022/05/27 12:13:55;;;;;;;10.00;2.43;;;;;;;27.03;27.70;102040.03;5115926;28;20035;-85
2022/05/27 12:16:27;;;;;;;6.97;2.10;;;;;;;28.34;25.63;102013.44;5115384;28;20138;-84
2022/05/27 12:19:04;;;;;;;7.75;2.70;;;;;;;28.95;24.75;102030.94;5114708;28;20470;-85